createdAt,value
2019-05-20T00:03:45.787Z,14.20
2019-05-20T00:08:51.172Z,14.25
2019-05-20T00:13:56.322Z,14.40
2019-05-20T00:19:01.536Z,14.31
2019-05-20T00:24:07.077Z,14.26
2019-05-20T00:29:12.659Z,14.23
2019-05-20T00:34:26.654Z,14.12
2019-05-20T00:39:25.101Z,14.15
2019-05-20T00:44:30.687Z,14.18
2019-05-20T00:49:36.392Z,14.06
2019-05-20T00:54:41.709Z,14.01
2019-05-20T00:59:47.116Z,14.02
2019-05-20T01:04:52.515Z,13.99
2019-05-20T01:09:57.869Z,13.97
2019-05-20T01:15:03.066Z,13.85
2019-05-20T01:20:09.428Z,13.92
2019-05-20T01:25:14.701Z,13.91
2019-05-20T01:30:21.869Z,13.83
2019-05-20T01:35:27.034Z,13.81
2019-05-20T01:40:32.292Z,13.67
2019-05-20T01:45:37.741Z,13.67
2019-05-20T01:50:43.403Z,13.66
2019-05-20T01:55:49.079Z,13.68
2019-05-20T02:00:54.502Z,13.63
2019-05-20T02:05:59.788Z,13.65
2019-05-20T02:11:05.463Z,13.54
2019-05-20T02:16:11.037Z,13.54
2019-05-20T02:21:16.487Z,13.55
2019-05-20T02:26:21.935Z,13.61
2019-05-20T02:31:27.512Z,13.56
2019-05-20T02:36:32.966Z,13.48
2019-05-20T02:41:38.207Z,13.53
2019-05-20T02:46:43.324Z,13.46
2019-05-20T02:51:48.843Z,13.53
2019-05-20T02:56:54.099Z,13.50
2019-05-20T03:01:59.242Z,13.39
2019-05-20T03:07:05.711Z,13.40
2019-05-20T03:12:10.849Z,13.36
2019-05-20T03:17:16.352Z,13.41
2019-05-20T03:22:22.018Z,13.58
2019-05-20T03:27:27.376Z,13.55
2019-05-20T03:32:32.822Z,13.64
2019-05-20T03:37:38.304Z,13.64
2019-05-20T03:42:43.605Z,13.57
2019-05-20T03:47:49.040Z,13.61
2019-05-20T03:52:54.503Z,13.71
2019-05-20T03:57:59.935Z,13.83
2019-05-20T04:03:05.507Z,13.96
2019-05-20T04:08:11.080Z,14.20
2019-05-20T04:13:16.532Z,14.21
2019-05-20T04:18:21.885Z,14.52
2019-05-20T04:23:27.250Z,14.57
2019-05-20T04:28:32.436Z,14.61
2019-05-20T04:33:40.627Z,14.61
2019-05-20T04:38:45.952Z,14.77
2019-05-20T04:43:51.243Z,14.79
2019-05-20T04:48:56.937Z,14.84
2019-05-20T04:54:02.078Z,14.85
2019-05-20T04:59:07.441Z,14.88
2019-05-20T05:04:12.763Z,15.11
2019-05-20T05:09:18.286Z,15.13
2019-05-20T05:14:23.572Z,15.23
2019-05-20T05:19:28.786Z,15.38
2019-05-20T05:24:34.418Z,15.57
2019-05-20T05:29:39.868Z,15.70
2019-05-20T05:34:45.119Z,15.88
2019-05-20T05:39:50.727Z,15.95
2019-05-20T05:44:55.798Z,16.12
2019-05-20T05:50:01.077Z,16.25
2019-05-20T05:55:07.156Z,16.44
2019-05-20T06:00:12.373Z,16.46
2019-05-20T06:05:17.856Z,16.56
2019-05-20T06:10:23.535Z,16.68
2019-05-20T06:15:28.877Z,16.70
2019-05-20T06:20:34.473Z,16.66
2019-05-20T06:25:39.849Z,16.80
2019-05-20T06:30:46.792Z,16.93
2019-05-20T06:35:52.066Z,17.06
2019-05-20T06:40:57.460Z,17.21
2019-05-20T06:46:03.020Z,17.37
2019-05-20T06:51:08.374Z,17.52
2019-05-20T06:56:13.840Z,17.82
2019-05-20T07:01:19.041Z,17.83
2019-05-20T07:06:24.338Z,17.85
2019-05-20T07:11:29.624Z,17.95
2019-05-20T07:16:34.998Z,18.16
2019-05-20T07:21:40.366Z,18.12
2019-05-20T07:26:45.831Z,18.18
2019-05-20T07:31:51.208Z,18.20
2019-05-20T07:37:03.323Z,18.09
2019-05-20T07:42:04.045Z,18.02
2019-05-20T07:47:11.198Z,18.02
2019-05-20T07:52:17.340Z,17.95
2019-05-20T07:57:25.020Z,17.90
2019-05-20T08:02:31.204Z,18.21
2019-05-20T08:07:51.191Z,18.11
2019-05-20T08:12:43.959Z,18.10
2019-05-20T08:17:49.534Z,18.06
2019-05-20T08:22:55.009Z,18.24
2019-05-20T08:28:00.387Z,18.37
2019-05-20T08:33:06.609Z,18.31
2019-05-20T08:38:11.972Z,18.29
2019-05-20T08:43:17.311Z,18.41
2019-05-20T08:48:22.831Z,18.57
2019-05-20T08:53:29.152Z,18.70
2019-05-20T08:58:34.319Z,18.70
2019-05-20T09:03:39.559Z,18.78
2019-05-20T09:08:44.960Z,18.82
2019-05-20T09:13:50.569Z,18.92
2019-05-20T09:18:55.820Z,19.04
2019-05-20T09:24:01.229Z,19.28
2019-05-20T09:29:10.766Z,19.26
2019-05-20T09:34:13.791Z,19.32
2019-05-20T09:39:19.137Z,19.43
2019-05-20T09:44:24.478Z,19.51
2019-05-20T09:49:29.709Z,19.49
2019-05-20T09:54:34.986Z,19.42
2019-05-20T09:59:43.434Z,19.56
2019-05-20T10:04:47.489Z,19.54
2019-05-20T10:09:53.042Z,19.71
2019-05-20T10:14:58.512Z,19.79
2019-05-20T10:20:05.502Z,19.92
2019-05-20T10:25:11.738Z,20.04
2019-05-20T10:30:17.411Z,19.96
2019-05-20T10:35:22.833Z,20.11
2019-05-20T10:40:28.089Z,20.28
2019-05-20T10:45:34.344Z,20.40
2019-05-20T10:50:41.426Z,20.54
2019-05-20T10:55:46.715Z,20.74
2019-05-20T11:01:02.369Z,20.84
2019-05-20T11:05:59.165Z,20.84
2019-05-20T11:11:04.647Z,21.16
2019-05-20T11:16:10.303Z,21.28
2019-05-20T11:21:15.942Z,21.63
2019-05-20T11:26:21.506Z,21.70
2019-05-20T11:31:26.947Z,21.72
2019-05-20T11:36:32.442Z,21.96
2019-05-20T11:41:53.003Z,22.23
2019-05-20T11:46:45.400Z,22.24
2019-05-20T11:51:50.549Z,22.17
2019-05-20T11:56:55.728Z,22.38
2019-05-20T12:02:03.839Z,22.48
2019-05-20T12:07:08.701Z,22.72
2019-05-20T12:12:14.347Z,22.68
2019-05-20T12:17:19.531Z,22.73
2019-05-20T12:22:24.702Z,22.45
2019-05-20T12:27:30.080Z,22.55
2019-05-20T12:32:35.603Z,22.97
2019-05-20T12:37:40.799Z,23.80
2019-05-20T12:42:46.125Z,23.58
2019-05-20T12:47:51.547Z,22.74
2019-05-20T12:52:56.785Z,22.81
2019-05-20T12:58:02.076Z,23.77
2019-05-20T13:03:07.418Z,24.91
2019-05-20T13:08:12.996Z,26.16
2019-05-20T13:13:18.381Z,26.89
2019-05-20T13:18:23.677Z,27.36
2019-05-20T13:23:29.061Z,28.70
2019-05-20T13:28:34.425Z,27.99
2019-05-20T13:33:39.813Z,26.74
2019-05-20T13:38:45.302Z,26.06
2019-05-20T13:43:52.043Z,24.92
2019-05-20T13:48:57.284Z,25.02
2019-05-20T13:54:02.515Z,25.44
2019-05-20T13:59:07.701Z,26.31
2019-05-20T14:04:12.923Z,28.24
2019-05-20T14:09:20.066Z,29.91
2019-05-20T14:14:25.416Z,28.82
2019-05-20T14:19:31.879Z,26.46
2019-05-20T14:24:37.364Z,24.84
2019-05-20T14:29:43.955Z,24.08
2019-05-20T14:34:49.185Z,23.42
2019-05-20T14:39:54.544Z,23.04
2019-05-20T14:45:00.021Z,22.88
2019-05-20T14:50:07.660Z,22.78
2019-05-20T14:55:13.227Z,22.41
2019-05-20T15:00:18.826Z,22.34
2019-05-20T15:05:24.299Z,22.66
2019-05-20T15:10:29.990Z,22.86
2019-05-20T15:15:35.849Z,23.37
2019-05-20T15:20:41.144Z,23.21
2019-05-20T15:25:46.603Z,22.96
2019-05-20T15:30:52.087Z,22.73
2019-05-20T15:35:58.226Z,22.72
2019-05-20T15:41:03.713Z,22.57
2019-05-20T15:46:08.941Z,22.45
2019-05-20T15:51:14.249Z,22.11
2019-05-20T15:56:19.666Z,21.81
2019-05-20T16:01:25.023Z,21.80
2019-05-20T16:06:30.461Z,21.79
2019-05-20T16:11:35.685Z,21.80
2019-05-20T16:16:40.980Z,21.61
2019-05-20T16:21:47.930Z,21.44
2019-05-20T16:26:53.454Z,21.54
2019-05-20T16:31:58.794Z,21.67
2019-05-20T16:37:04.320Z,22.34
2019-05-20T16:42:12.025Z,22.46
2019-05-20T16:47:17.392Z,22.42
2019-05-20T16:52:22.545Z,22.25
2019-05-20T16:57:28.094Z,22.13
2019-05-20T17:02:33.520Z,22.07
2019-05-20T17:07:39.829Z,21.80
2019-05-20T17:12:45.271Z,21.36
2019-05-20T17:17:50.594Z,21.08
2019-05-20T17:22:56.181Z,21.01
2019-05-20T17:28:01.465Z,20.91
2019-05-20T17:33:06.854Z,20.65
2019-05-20T17:38:13.109Z,20.49
2019-05-20T17:43:20.215Z,20.46
2019-05-20T17:48:25.590Z,20.24
2019-05-20T17:53:30.953Z,20.21
2019-05-20T17:58:37.408Z,20.19
2019-05-20T18:03:43.049Z,20.31
2019-05-20T18:08:50.153Z,20.27
2019-05-20T18:13:55.250Z,20.23
2019-05-20T18:19:00.689Z,20.12
2019-05-20T18:24:06.254Z,19.90
2019-05-20T18:29:11.726Z,19.86
2019-05-20T18:34:16.887Z,19.80
2019-05-20T18:39:22.066Z,19.66
2019-05-20T18:44:27.621Z,19.42
2019-05-20T18:49:33.183Z,19.30
2019-05-20T18:54:38.623Z,19.34
2019-05-20T18:59:44.637Z,19.35
2019-05-20T19:04:49.966Z,19.33
2019-05-20T19:09:55.262Z,19.18
2019-05-20T19:15:00.482Z,19.12
2019-05-20T19:20:07.229Z,19.07
2019-05-20T19:25:12.434Z,19.11
2019-05-20T19:30:17.953Z,18.96
2019-05-20T19:35:23.274Z,18.86
2019-05-20T19:40:28.548Z,18.64
2019-05-20T19:45:33.912Z,18.59
2019-05-20T19:50:39.348Z,18.62
2019-05-20T19:55:44.614Z,18.63
2019-05-20T20:00:51.744Z,18.49
2019-05-20T20:05:57.345Z,18.29
2019-05-20T20:11:02.761Z,18.23
2019-05-20T20:16:07.993Z,18.22
2019-05-20T20:21:13.165Z,18.26
2019-05-20T20:26:18.700Z,18.35
2019-05-20T20:31:23.958Z,18.31
2019-05-20T20:36:29.036Z,18.28
2019-05-20T20:41:34.402Z,18.25
2019-05-20T20:46:40.715Z,18.24
2019-05-20T20:51:47.750Z,18.21
2019-05-20T20:56:53.215Z,18.11
2019-05-20T21:01:59.350Z,17.90
2019-05-20T21:07:05.054Z,17.90
2019-05-20T21:12:10.430Z,17.83
2019-05-20T21:17:15.604Z,17.82
2019-05-20T21:22:21.184Z,17.75
2019-05-20T21:27:26.434Z,17.72
2019-05-20T21:32:31.940Z,17.68
2019-05-20T21:37:37.154Z,17.63
2019-05-20T21:42:42.307Z,17.68
2019-05-20T21:47:47.566Z,17.66
2019-05-20T21:52:52.900Z,17.70
2019-05-20T21:57:58.027Z,17.75
2019-05-20T22:03:03.335Z,17.66
2019-05-20T22:08:08.956Z,17.59
2019-05-20T22:13:14.325Z,17.55
2019-05-20T22:18:19.759Z,17.52
2019-05-20T22:23:38.718Z,17.45
2019-05-20T22:28:44.112Z,17.37
2019-05-20T22:33:49.351Z,17.46
2019-05-20T22:38:54.697Z,17.42
2019-05-20T22:43:59.970Z,17.56
2019-05-20T22:49:05.430Z,17.56
2019-05-20T22:54:10.746Z,17.50
2019-05-20T22:59:15.919Z,17.66
2019-05-20T23:04:21.507Z,17.60
2019-05-20T23:09:26.827Z,17.53
2019-05-20T23:14:32.228Z,17.53
2019-05-20T23:19:37.590Z,17.65
2019-05-20T23:24:43.037Z,17.50
2019-05-20T23:29:48.432Z,17.49
2019-05-20T23:34:53.575Z,17.46
2019-05-20T23:39:58.725Z,17.29
2019-05-20T23:45:06.725Z,17.17
2019-05-20T23:50:12.613Z,17.26
2019-05-20T23:55:17.896Z,17.19
